createdAt,value
2018-04-25T00:00:41.223Z,63.40
2018-04-25T00:03:08.991Z,63.20
2018-04-25T00:05:36.700Z,62.60
2018-04-25T00:08:04.415Z,63.00
2018-04-25T00:10:32.142Z,61.50
2018-04-25T00:12:59.865Z,64.10
2018-04-25T00:15:27.540Z,61.50
2018-04-25T00:17:55.227Z,61.40
2018-04-25T00:20:23.733Z,63.90
2018-04-25T00:22:52.175Z,63.30
2018-04-25T00:25:19.972Z,63.30
2018-04-25T00:27:47.685Z,62.20
2018-04-25T00:30:16.145Z,63.00
2018-04-25T00:32:43.928Z,63.00
2018-04-25T00:35:12.498Z,60.20
2018-04-25T00:37:40.173Z,60.10
2018-04-25T00:40:07.998Z,62.40
2018-04-25T00:42:35.705Z,63.20
2018-04-25T00:45:03.493Z,61.80
2018-04-25T00:47:31.226Z,61.70
2018-04-25T00:49:59.019Z,60.70
2018-04-25T00:52:26.794Z,60.10
2018-04-25T00:54:54.527Z,61.00
2018-04-25T00:57:22.435Z,60.00
2018-04-25T00:59:50.992Z,60.00
2018-04-25T01:02:18.697Z,60.00
2018-04-25T01:04:47.379Z,58.70
2018-04-25T01:07:15.121Z,58.70
2018-04-25T01:09:42.958Z,58.00
2018-04-25T01:12:11.531Z,58.60
2018-04-25T01:14:39.240Z,58.60
2018-04-25T01:17:07.042Z,58.40
2018-04-25T01:19:34.805Z,58.70
2018-04-25T01:22:02.537Z,58.90
2018-04-25T01:24:30.308Z,58.90
2018-04-25T01:27:03.866Z,56.70
2018-04-25T01:29:31.612Z,58.60
2018-04-25T01:31:59.492Z,58.40
2018-04-25T01:34:31.797Z,57.30
2018-04-25T01:40:00.982Z,57.00
2018-04-25T01:42:38.601Z,57.80
2018-04-25T01:45:20.068Z,57.70
2018-04-25T01:47:48.683Z,57.90
2018-04-25T01:50:37.359Z,57.10
2018-04-25T01:53:17.022Z,55.90
2018-04-25T01:55:56.624Z,56.60
2018-04-25T01:58:36.371Z,56.40
2018-04-25T02:01:16.678Z,56.40
2018-04-25T02:04:00.287Z,56.50
2018-04-25T02:06:28.000Z,56.50
2018-04-25T02:08:55.742Z,56.90
2018-04-25T02:11:24.228Z,57.30
2018-04-25T02:13:51.900Z,57.20
2018-04-25T02:16:19.556Z,57.50
2018-04-25T02:18:47.267Z,57.50
2018-04-25T02:21:15.760Z,57.60
2018-04-25T02:23:44.289Z,57.70
2018-04-25T02:26:12.115Z,57.70
2018-04-25T02:28:39.843Z,57.00
2018-04-25T02:31:07.521Z,56.70
2018-04-25T02:33:35.248Z,56.60
2018-04-25T02:36:02.912Z,57.90
2018-04-25T02:38:30.614Z,57.20
2018-04-25T02:40:59.140Z,59.30
2018-04-25T02:43:26.841Z,59.90
2018-04-25T02:45:54.545Z,58.20
2018-04-25T02:48:23.057Z,56.80
2018-04-25T02:50:50.766Z,56.80
2018-04-25T02:53:18.420Z,57.50
2018-04-25T02:55:46.166Z,57.70
2018-04-25T02:58:14.597Z,57.40
2018-04-25T03:00:42.686Z,57.40
2018-04-25T03:03:10.383Z,58.60
2018-04-25T03:05:38.104Z,58.80
2018-04-25T03:08:06.555Z,59.70
2018-04-25T03:10:34.256Z,59.70
2018-04-25T03:13:01.999Z,59.20
2018-04-25T03:15:29.777Z,59.60
2018-04-25T03:17:57.480Z,60.00
2018-04-25T03:20:25.221Z,58.90
2018-04-25T03:22:52.974Z,58.70
2018-04-25T03:25:20.677Z,60.10
2018-04-25T03:27:48.390Z,60.30
2018-04-25T03:30:16.148Z,59.00
2018-04-25T03:32:43.845Z,59.00
2018-04-25T03:35:11.514Z,59.20
2018-04-25T03:37:39.233Z,59.70
2018-04-25T03:40:07.038Z,59.70
2018-04-25T03:42:34.803Z,59.10
2018-04-25T03:45:02.502Z,60.00
2018-04-25T03:47:30.229Z,60.30
2018-04-25T03:49:57.892Z,60.20
2018-04-25T03:52:25.656Z,60.10
2018-04-25T03:54:53.316Z,60.70
2018-04-25T03:57:21.078Z,60.90
2018-04-25T03:59:48.829Z,61.50
2018-04-25T04:02:16.617Z,62.20
2018-04-25T04:04:44.328Z,59.70
2018-04-25T04:07:12.084Z,60.50
2018-04-25T04:09:39.790Z,60.00
2018-04-25T04:12:07.489Z,60.70
2018-04-25T04:14:35.167Z,62.10
2018-04-25T04:17:02.872Z,59.40
2018-04-25T04:19:30.501Z,61.30
2018-04-25T04:21:58.975Z,59.70
2018-04-25T04:24:26.661Z,59.60
2018-04-25T04:26:54.411Z,59.90
2018-04-25T04:29:22.141Z,60.00
2018-04-25T04:31:49.836Z,60.20
2018-04-25T04:34:17.624Z,58.90
2018-04-25T04:36:45.388Z,59.10
2018-04-25T04:39:13.149Z,60.00
2018-04-25T04:41:40.852Z,59.90
2018-04-25T04:44:08.669Z,60.30
2018-04-25T04:46:37.341Z,59.80
2018-04-25T04:49:05.082Z,59.80
2018-04-25T04:51:33.066Z,61.70
2018-04-25T04:54:01.545Z,60.30
2018-04-25T04:56:30.034Z,60.80
2018-04-25T04:58:57.798Z,60.70
2018-04-25T05:01:25.521Z,60.40
2018-04-25T05:03:53.229Z,60.60
2018-04-25T05:06:20.909Z,60.10
2018-04-25T05:08:48.690Z,60.70
2018-04-25T05:11:19.906Z,63.40
2018-04-25T05:13:47.746Z,63.30
2018-04-25T05:16:15.800Z,65.30
2018-04-25T05:18:43.590Z,65.60
2018-04-25T05:21:11.267Z,67.60
2018-04-25T05:23:38.982Z,66.60
2018-04-25T05:26:06.867Z,67.60
2018-04-25T05:28:34.589Z,69.60
2018-04-25T05:31:02.319Z,71.60
2018-04-25T05:33:30.065Z,73.50
2018-04-25T05:35:58.549Z,68.10
2018-04-25T05:38:26.244Z,67.80
2018-04-25T05:40:53.977Z,67.30
2018-04-25T05:43:21.633Z,71.90
2018-04-25T05:45:49.348Z,70.80
2018-04-25T05:48:17.100Z,72.30
2018-04-25T05:50:44.861Z,72.40
2018-04-25T05:53:12.640Z,75.00
2018-04-25T05:55:40.365Z,72.60
2018-04-25T05:58:08.916Z,69.90
2018-04-25T06:00:36.653Z,69.70
2018-04-25T06:03:04.386Z,72.60
2018-04-25T06:05:32.197Z,73.40
2018-04-25T06:07:59.942Z,72.40
2018-04-25T06:10:27.652Z,71.60
2018-04-25T06:12:55.355Z,70.80
2018-04-25T06:15:23.087Z,69.80
2018-04-25T06:17:50.761Z,71.40
2018-04-25T06:20:18.538Z,73.50
2018-04-25T06:22:46.221Z,73.20
2018-04-25T06:25:16.602Z,71.40
2018-04-25T06:27:44.355Z,71.20
2018-04-25T06:30:12.836Z,71.90
2018-04-25T06:32:41.416Z,69.10
2018-04-25T06:35:09.284Z,69.00
2018-04-25T06:37:37.073Z,68.70
2018-04-25T06:40:04.916Z,69.10
2018-04-25T06:42:32.610Z,70.30
2018-04-25T06:45:00.285Z,70.80
2018-04-25T06:47:28.045Z,72.50
2018-04-25T06:49:55.750Z,71.80
2018-04-25T06:52:23.470Z,71.40
2018-04-25T06:54:51.120Z,71.50
2018-04-25T06:57:18.856Z,70.30
2018-04-25T06:59:46.534Z,72.10
2018-04-25T07:02:14.256Z,70.70
2018-04-25T07:04:41.942Z,70.40
2018-04-25T07:07:09.679Z,70.00
2018-04-25T07:09:37.357Z,70.10
2018-04-25T07:12:05.071Z,70.80
2018-04-25T07:14:32.774Z,71.40
2018-04-25T07:17:00.503Z,69.00
2018-04-25T07:19:29.022Z,68.80
2018-04-25T07:21:56.885Z,67.80
2018-04-25T07:24:24.619Z,70.60
2018-04-25T07:26:52.474Z,70.20
2018-04-25T07:29:20.121Z,68.30
2018-04-25T07:31:47.787Z,66.90
2018-04-25T07:34:15.485Z,60.00
2018-04-25T07:36:43.221Z,56.80
2018-04-25T07:39:10.995Z,55.90
2018-04-25T07:41:39.470Z,61.40
2018-04-25T07:44:08.163Z,61.60
2018-04-25T07:46:35.992Z,61.50
2018-04-25T07:49:03.780Z,62.40
2018-04-25T07:51:31.564Z,62.90
2018-04-25T07:53:59.391Z,64.70
2018-04-25T07:56:27.108Z,64.10
2018-04-25T07:58:54.884Z,64.00
2018-04-25T08:01:22.618Z,63.30
2018-04-25T08:03:51.130Z,62.30
2018-04-25T08:06:19.637Z,64.90
2018-04-25T08:08:47.360Z,65.00
2018-04-25T08:11:15.091Z,63.10
2018-04-25T08:13:54.590Z,64.30
2018-04-25T08:16:34.087Z,64.70
2018-04-25T08:19:13.588Z,65.30
2018-04-25T08:21:41.347Z,68.00
2018-04-25T08:24:09.832Z,69.20
2018-04-25T08:26:37.523Z,69.10
2018-04-25T08:29:05.265Z,68.00
2018-04-25T08:31:33.060Z,69.70
2018-04-25T08:34:00.900Z,68.30
2018-04-25T08:36:28.646Z,68.30
2018-04-25T08:38:56.462Z,69.00
2018-04-25T08:41:25.141Z,69.10
2018-04-25T08:43:52.926Z,69.10
2018-04-25T08:46:20.616Z,70.10
2018-04-25T08:48:49.374Z,67.80
2018-04-25T08:51:17.113Z,67.50
2018-04-25T08:53:44.992Z,65.40
2018-04-25T08:56:12.713Z,64.30
2018-04-25T08:58:40.471Z,60.30
2018-04-25T09:01:08.200Z,59.20
2018-04-25T09:03:36.714Z,57.00
2018-04-25T09:06:05.445Z,56.90
2018-04-25T09:08:33.190Z,57.20
2018-04-25T09:11:00.931Z,56.80
2018-04-25T09:13:28.699Z,55.20
2018-04-25T09:15:56.429Z,55.50
2018-04-25T09:18:24.185Z,55.80
2018-04-25T09:20:52.752Z,56.90
2018-04-25T09:23:20.473Z,57.00
2018-04-25T09:25:48.974Z,57.10
2018-04-25T09:28:16.752Z,57.30
2018-04-25T09:30:44.613Z,57.80
2018-04-25T09:33:12.334Z,58.80
2018-04-25T09:35:40.080Z,57.70
2018-04-25T09:38:07.798Z,58.60
2018-04-25T09:40:35.669Z,59.70
2018-04-25T09:43:03.477Z,59.70
2018-04-25T09:45:31.245Z,58.40
2018-04-25T09:47:58.972Z,58.10
2018-04-25T09:50:26.942Z,56.60
2018-04-25T09:52:55.495Z,53.10
2018-04-25T09:55:23.211Z,52.90
2018-04-25T09:57:51.832Z,53.00
2018-04-25T10:00:19.629Z,53.40
2018-04-25T10:02:52.992Z,53.90
2018-04-25T10:05:20.796Z,53.70
2018-04-25T10:07:48.613Z,53.50
2018-04-25T10:10:16.334Z,54.40
2018-04-25T10:12:44.135Z,54.40
2018-04-25T10:15:11.896Z,54.50
2018-04-25T10:17:39.654Z,54.60
2018-04-25T10:20:08.210Z,55.20
2018-04-25T10:22:35.964Z,54.90
2018-04-25T10:25:03.793Z,54.60
2018-04-25T10:27:32.474Z,52.30
2018-04-25T10:30:00.473Z,52.20
2018-04-25T10:32:28.357Z,51.30
2018-04-25T10:34:56.078Z,50.60
2018-04-25T10:37:24.013Z,50.30
2018-04-25T10:39:51.965Z,50.90
2018-04-25T10:42:19.753Z,52.00
2018-04-25T10:44:47.584Z,51.10
2018-04-25T10:47:15.389Z,51.30
2018-04-25T10:49:43.128Z,49.80
2018-04-25T10:52:10.945Z,49.40
2018-04-25T10:54:39.512Z,49.00
2018-04-25T10:57:07.269Z,48.90
2018-04-25T10:59:35.514Z,52.30
2018-04-25T11:02:03.223Z,51.20
2018-04-25T11:04:31.836Z,51.10
2018-04-25T11:06:59.547Z,51.00
2018-04-25T11:09:27.365Z,49.70
2018-04-25T11:11:55.113Z,51.10
2018-04-25T11:14:22.938Z,49.00
2018-04-25T11:16:50.686Z,51.20
2018-04-25T11:19:18.481Z,48.30
2018-04-25T11:21:46.207Z,50.40
2018-04-25T11:24:14.210Z,50.20
2018-04-25T11:26:42.636Z,52.40
2018-04-25T11:29:10.357Z,52.30
2018-04-25T11:31:40.202Z,51.80
2018-04-25T11:34:08.193Z,51.80
2018-04-25T11:36:37.187Z,51.00
2018-04-25T11:41:38.060Z,49.90
2018-04-25T11:44:05.853Z,49.80
2018-04-25T11:46:33.683Z,49.50
2018-04-25T11:49:01.467Z,49.60
2018-04-25T11:51:29.280Z,48.10
2018-04-25T11:53:57.109Z,49.00
2018-04-25T11:56:24.926Z,50.10
2018-04-25T11:58:53.896Z,48.90
2018-04-25T12:01:21.693Z,49.10
2018-04-25T12:03:55.765Z,49.40
2018-04-25T12:06:31.059Z,48.70
2018-04-25T12:08:59.541Z,48.30
2018-04-25T12:11:27.407Z,49.00
2018-04-25T12:13:55.945Z,47.30
2018-04-25T12:16:23.704Z,47.30
2018-04-25T12:18:51.487Z,47.30
2018-04-25T12:21:19.267Z,49.00
2018-04-25T12:23:47.096Z,47.20
2018-04-25T12:26:15.049Z,47.70
2018-04-25T12:28:44.158Z,47.20
2018-04-25T12:31:12.793Z,47.40
2018-04-25T12:33:44.546Z,47.40
2018-04-25T12:36:12.374Z,48.50
2018-04-25T12:38:40.064Z,48.20
2018-04-25T12:41:08.113Z,47.80
2018-04-25T12:43:35.890Z,48.30
2018-04-25T12:46:04.510Z,48.80
2018-04-25T12:48:32.315Z,48.80
2018-04-25T12:51:00.064Z,48.20
2018-04-25T12:53:27.842Z,47.70
2018-04-25T12:55:55.628Z,46.80
2018-04-25T12:58:23.521Z,46.30
2018-04-25T13:00:51.252Z,46.60
2018-04-25T13:03:19.836Z,45.40
2018-04-25T13:05:47.585Z,45.50
2018-04-25T13:08:15.329Z,46.60
2018-04-25T13:10:43.041Z,45.70
2018-04-25T13:13:10.825Z,46.40
2018-04-25T13:15:38.940Z,46.60
2018-04-25T13:18:06.711Z,46.60
2018-04-25T13:20:34.573Z,47.10
2018-04-25T13:23:02.365Z,45.90
2018-04-25T13:25:30.964Z,46.40
2018-04-25T13:27:59.601Z,45.30
2018-04-25T13:30:27.377Z,45.20
2018-04-25T13:32:55.136Z,45.10
2018-04-25T13:35:23.470Z,43.20
2018-04-25T13:37:51.312Z,45.70
2018-04-25T13:40:19.068Z,43.30
2018-04-25T13:42:46.826Z,45.90
2018-04-25T13:45:14.588Z,45.90
2018-04-25T13:47:42.310Z,45.00
2018-04-25T13:50:10.126Z,43.50
2018-04-25T13:52:37.889Z,44.10
2018-04-25T13:55:05.644Z,42.40
2018-04-25T13:57:33.365Z,42.70
2018-04-25T14:00:01.343Z,42.80
2018-04-25T14:02:29.216Z,42.20
2018-04-25T14:04:56.967Z,43.60
2018-04-25T14:07:24.749Z,42.40
2018-04-25T14:09:52.529Z,44.10
2018-04-25T14:12:20.352Z,43.50
2018-04-25T14:14:48.162Z,41.60
2018-04-25T14:17:15.932Z,43.70
2018-04-25T14:19:43.710Z,42.00
2018-04-25T14:22:12.203Z,39.50
2018-04-25T14:24:40.123Z,39.80
2018-04-25T14:27:07.875Z,41.40
2018-04-25T14:29:35.598Z,42.60
2018-04-25T14:32:03.501Z,43.50
2018-04-25T14:34:32.140Z,41.80
2018-04-25T14:36:59.923Z,41.80
2018-04-25T14:39:27.685Z,42.10
2018-04-25T14:41:55.463Z,42.50
2018-04-25T14:44:23.242Z,42.80
2018-04-25T14:46:51.044Z,42.00
2018-04-25T14:49:18.783Z,42.90
2018-04-25T14:51:46.574Z,42.20
2018-04-25T14:54:14.527Z,43.80
2018-04-25T14:56:42.344Z,43.40
2018-04-25T14:59:10.146Z,41.90
2018-04-25T15:01:37.953Z,41.90
2018-04-25T15:04:05.666Z,42.20
2018-04-25T15:06:33.440Z,42.30
2018-04-25T15:09:01.938Z,42.40
2018-04-25T15:11:29.738Z,41.80
2018-04-25T15:13:57.481Z,41.80
2018-04-25T15:16:25.232Z,42.60
2018-04-25T15:18:53.090Z,41.70
2018-04-25T15:21:20.878Z,43.00
2018-04-25T15:23:48.722Z,42.90
2018-04-25T15:26:16.521Z,41.60
2018-04-25T15:28:44.353Z,42.70
2018-04-25T15:31:12.176Z,40.40
2018-04-25T15:33:39.940Z,42.00
2018-04-25T15:36:07.685Z,41.90
2018-04-25T15:38:35.457Z,43.70
2018-04-25T15:41:03.209Z,43.20
2018-04-25T15:43:30.949Z,44.10
2018-04-25T15:45:58.814Z,43.60
2018-04-25T15:48:26.646Z,42.80
2018-04-25T15:50:55.165Z,44.90
2018-04-25T15:53:23.133Z,44.80
2018-04-25T15:55:50.876Z,44.40
2018-04-25T15:58:18.633Z,45.10
2018-04-25T16:00:46.370Z,46.00
2018-04-25T16:03:14.124Z,46.20
2018-04-25T16:05:43.553Z,47.30
2018-04-25T16:08:12.063Z,45.60
2018-04-25T16:10:39.909Z,45.50
2018-04-25T16:13:07.634Z,45.50
2018-04-25T16:15:35.400Z,46.90
2018-04-25T16:18:03.266Z,45.60
2018-04-25T16:20:30.968Z,46.00
2018-04-25T16:22:58.706Z,45.90
2018-04-25T16:25:26.425Z,45.50
2018-04-25T16:27:54.198Z,44.30
2018-04-25T16:33:16.290Z,44.60
2018-04-25T16:35:43.987Z,44.80
2018-04-25T16:38:11.764Z,45.20
2018-04-25T16:40:39.549Z,45.30
2018-04-25T16:43:07.294Z,45.10
2018-04-25T16:45:36.478Z,44.70
2018-04-25T16:48:17.148Z,45.70
2018-04-25T16:55:12.601Z,44.90
2018-04-25T17:00:30.213Z,44.20
2018-04-25T17:02:57.922Z,44.40
2018-04-25T17:05:25.682Z,44.40
2018-04-25T17:07:53.402Z,45.60
2018-04-25T17:10:21.174Z,44.80
2018-04-25T17:12:48.873Z,43.60
2018-04-25T17:15:16.615Z,45.80
2018-04-25T17:17:44.342Z,44.40
2018-04-25T17:20:12.117Z,45.90
2018-04-25T17:22:39.829Z,45.90
2018-04-25T17:25:17.601Z,45.70
2018-04-25T17:27:45.288Z,45.30
2018-04-25T17:30:16.618Z,45.40
2018-04-25T17:32:45.837Z,45.00
2018-04-25T17:35:13.621Z,45.00
2018-04-25T17:37:47.018Z,42.40
2018-04-25T17:40:17.407Z,45.40
2018-04-25T17:42:45.218Z,43.80
2018-04-25T17:45:13.014Z,44.00
2018-04-25T17:47:40.885Z,43.50
2018-04-25T17:50:08.700Z,44.10
2018-04-25T17:52:36.519Z,44.30
2018-04-25T17:55:04.285Z,44.50
2018-04-25T17:57:32.225Z,44.30
2018-04-25T18:00:00.028Z,43.70
2018-04-25T18:05:08.366Z,44.60
2018-04-25T18:07:37.168Z,45.00
2018-04-25T18:10:05.160Z,44.90
2018-04-25T18:12:32.941Z,45.30
2018-04-25T18:15:00.762Z,46.20
2018-04-25T18:17:28.656Z,45.20
2018-04-25T18:28:31.983Z,43.70
2018-04-25T18:30:59.736Z,45.00
2018-04-25T18:33:27.841Z,44.70
2018-04-25T18:38:35.427Z,44.60
2018-04-25T18:45:33.798Z,45.00
2018-04-25T18:48:01.541Z,45.00
2018-04-25T18:50:29.353Z,45.00
2018-04-25T18:52:57.324Z,45.00
2018-04-25T18:58:35.881Z,45.40
2018-04-25T19:03:56.839Z,44.50
2018-04-25T19:06:35.215Z,45.50
2018-04-25T19:09:16.209Z,45.20
2018-04-25T19:11:44.078Z,45.40
2018-04-25T19:14:11.853Z,45.20
2018-04-25T19:16:39.608Z,45.90
2018-04-25T19:19:07.427Z,46.00
2018-04-25T19:24:28.412Z,46.00
2018-04-25T19:29:52.100Z,46.30
2018-04-25T19:32:19.921Z,44.90
2018-04-25T19:34:47.763Z,46.00
2018-04-25T19:37:15.476Z,46.00
2018-04-25T19:39:43.256Z,45.60
2018-04-25T19:42:11.810Z,48.10
2018-04-25T19:44:39.648Z,48.00
2018-04-25T19:47:08.667Z,46.10
2018-04-25T19:49:36.466Z,48.50
2018-04-25T19:52:05.240Z,49.80
2018-04-25T19:54:33.194Z,52.40
2018-04-25T19:57:02.420Z,51.30
2018-04-25T19:59:30.283Z,51.30
2018-04-25T20:01:58.771Z,50.50
2018-04-25T20:04:26.532Z,50.50
2018-04-25T20:06:54.404Z,50.10
2018-04-25T20:09:22.202Z,50.10
2018-04-25T20:11:49.935Z,50.20
2018-04-25T20:14:17.631Z,51.00
2018-04-25T20:16:45.424Z,50.40
2018-04-25T20:19:13.218Z,50.30
2018-04-25T20:21:41.752Z,51.90
2018-04-25T20:24:09.534Z,51.10
2018-04-25T20:26:37.445Z,50.80
2018-04-25T20:29:05.388Z,50.40
2018-04-25T20:31:33.253Z,50.40
2018-04-25T20:34:00.996Z,50.50
2018-04-25T20:36:28.814Z,52.70
2018-04-25T20:38:56.648Z,54.50
2018-04-25T20:41:24.441Z,53.20
2018-04-25T20:43:52.940Z,56.00
2018-04-25T20:46:21.489Z,55.60
2018-04-25T20:48:49.265Z,55.50
2018-04-25T20:51:17.007Z,54.80
2018-04-25T20:53:45.489Z,54.50
2018-04-25T20:56:13.289Z,54.50
2018-04-25T20:58:40.997Z,55.50
2018-04-25T21:01:08.765Z,55.10
2018-04-25T21:03:36.515Z,53.50
2018-04-25T21:06:04.309Z,55.00
2018-04-25T21:08:32.025Z,55.00
2018-04-25T21:10:59.875Z,55.10
2018-04-25T21:13:27.593Z,54.50
2018-04-25T21:15:55.280Z,53.10
2018-04-25T21:18:23.795Z,53.80
2018-04-25T21:20:51.584Z,53.70
2018-04-25T21:23:19.385Z,53.20
2018-04-25T21:25:47.160Z,53.20
2018-04-25T21:28:14.916Z,54.50
2018-04-25T21:30:42.810Z,53.80
2018-04-25T21:33:10.548Z,54.80
2018-04-25T21:35:38.265Z,56.80
2018-04-25T21:38:06.000Z,57.30
2018-04-25T21:40:34.505Z,53.90
2018-04-25T21:43:02.519Z,53.90
2018-04-25T21:45:30.327Z,54.20
2018-04-25T21:47:58.044Z,53.80
2018-04-25T21:50:26.552Z,53.40
2018-04-25T21:52:54.362Z,53.40
2018-04-25T21:55:22.317Z,54.00
2018-04-25T21:57:50.106Z,53.40
2018-04-25T22:00:17.860Z,53.20
2018-04-25T22:02:45.596Z,52.60
2018-04-25T22:05:13.307Z,54.60
2018-04-25T22:07:41.060Z,52.50
2018-04-25T22:10:08.747Z,54.50
2018-04-25T22:12:36.505Z,53.90
2018-04-25T22:15:04.282Z,54.40
2018-04-25T22:17:32.063Z,54.40
2018-04-25T22:19:59.845Z,51.30
2018-04-25T22:22:27.688Z,52.40
2018-04-25T22:24:55.437Z,54.00
2018-04-25T22:27:23.192Z,54.70
2018-04-25T22:29:51.633Z,53.40
2018-04-25T22:32:19.376Z,53.60
2018-04-25T22:34:47.149Z,51.10
2018-04-25T22:37:15.640Z,52.20
2018-04-25T22:39:44.126Z,53.10
2018-04-25T22:42:12.605Z,51.10
2018-04-25T22:44:40.402Z,51.10
2018-04-25T22:47:08.135Z,52.70
2018-04-25T22:49:35.981Z,52.60
2018-04-25T22:52:03.794Z,52.10
2018-04-25T22:54:31.535Z,50.10
2018-04-25T22:56:59.313Z,49.50
2018-04-25T22:59:27.032Z,52.20
2018-04-25T23:01:54.771Z,52.00
2018-04-25T23:04:22.489Z,50.90
2018-04-25T23:06:50.175Z,51.40
2018-04-25T23:09:17.997Z,49.40
2018-04-25T23:11:45.687Z,51.10
2018-04-25T23:14:13.417Z,52.50
2018-04-25T23:16:41.096Z,54.00
2018-04-25T23:19:09.581Z,51.60
2018-04-25T23:21:37.269Z,51.50
2018-04-25T23:24:05.755Z,52.00
2018-04-25T23:26:34.260Z,51.70
2018-04-25T23:29:02.894Z,50.60
2018-04-25T23:31:30.585Z,50.70
2018-04-25T23:33:58.310Z,53.60
2018-04-25T23:36:26.801Z,53.60
2018-04-25T23:38:55.312Z,52.40
2018-04-25T23:41:23.065Z,52.30
2018-04-25T23:43:51.512Z,51.00
2018-04-25T23:46:19.296Z,50.90
2018-04-25T23:48:47.013Z,50.90
2018-04-25T23:51:15.543Z,50.10
2018-04-25T23:53:43.298Z,50.10
2018-04-25T23:56:11.148Z,52.20
2018-04-25T23:58:38.836Z,51.70
